This is the latest recevied weather packets stored in our database for station/object IZ5MJO-13. If no packets are shown the sender has not sent any weather packets the latest 10 day(s).
| Time | Temp. | Humidity | Pressure | Rain* | Wind** | Luminosity | Snow |
|---|---|---|---|---|---|---|---|
| 1777553015 | 22.22° C | 28% | 1009.6 hPa | - | - | - | - |
| 1777552114 | 22.22° C | 25% | 1009.7 hPa | - | - | - | - |
| 1777551214 | 22.22° C | 25% | 1009.8 hPa | - | - | - | - |
| 1777550314 | 22.22° C | 26% | 1009.8 hPa | - | - | - | - |
| 1777549414 | 21.67° C | 30% | 1009.6 hPa | - | - | - | - |
| 1777548514 | 21.67° C | 29% | 1009.7 hPa | - | - | - | - |
| 1777547613 | 21.11° C | 28% | 1009.7 hPa | - | - | - | - |
| 1777546713 | 20.56° C | 32% | 1009.6 hPa | - | - | - | - |
| 1777545813 | 19.44° C | 31% | 1009.6 hPa | - | - | - | - |
| 1777544913 | 18.89° C | 34% | 1009.5 hPa | - | - | - | - |
| 1777544012 | 18.33° C | 33% | 1009.7 hPa | - | - | - | - |
| 1777543112 | 18.33° C | 33% | 1009.6 hPa | - | - | - | - |
| 1777542212 | 18.33° C | 35% | 1009.6 hPa | - | - | - | - |
| 1777541312 | 17.78° C | 36% | 1009.7 hPa | - | - | - | - |
| 1777540412 | 17.78° C | 38% | 1009.6 hPa | - | - | - | - |
| 1777539511 | 17.22° C | 38% | 1009.6 hPa | - | - | - | - |
| 1777538611 | 17.22° C | 39% | 1009.5 hPa | - | - | - | - |
| 1777537711 | 17.22° C | 41% | 1009.4 hPa | - | - | - | - |
| 1777536819 | 16.67° C | 42% | 1009.2 hPa | - | - | - | - |
| 1777535919 | 16.11° C | 43% | 1008.9 hPa | - | - | - | - |
| 1777535018 | 15.56° C | 46% | 1008.7 hPa | - | - | - | - |
| 1777534118 | 15° C | 46% | 1008.6 hPa | - | - | - | - |
| 1777533218 | 15° C | 47% | 1008.7 hPa | - | - | - | - |
| 1777532317 | 14.44° C | 49% | 1008.6 hPa | - | - | - | - |
| 1777531417 | 13.89° C | 50% | 1008.6 hPa | - | - | - | - |
* Rain since midnight (hover to see other rain measurements)
** Current wind speed in m/s (hover to see current wind gust speed)